createdAt,value
2022-12-06T00:02:13.168Z,9.30
2022-12-06T00:04:39.947Z,12.35
2022-12-06T00:07:06.853Z,14.75
2022-12-06T00:09:33.772Z,15.18
2022-12-06T00:12:00.563Z,9.13
2022-12-06T00:14:28.519Z,12.63
2022-12-06T00:16:55.453Z,12.10
2022-12-06T00:19:23.917Z,11.68
2022-12-06T00:21:50.764Z,7.90
2022-12-06T00:24:22.330Z,10.27
2022-12-06T00:26:50.499Z,10.35
2022-12-06T00:29:23.085Z,10.30
2022-12-06T00:31:50.370Z,9.85
2022-12-06T00:34:17.415Z,11.45
2022-12-06T00:36:44.838Z,9.73
2022-12-06T00:39:14.406Z,12.13
2022-12-06T00:41:41.735Z,9.20
2022-12-06T00:44:09.021Z,8.25
2022-12-06T00:46:36.599Z,9.15
2022-12-06T00:49:05.352Z,7.65
2022-12-06T00:51:33.671Z,11.77
2022-12-06T00:54:00.526Z,9.55
2022-12-06T00:56:27.424Z,9.45
2022-12-06T00:58:55.010Z,10.70
2022-12-06T01:01:23.117Z,9.93
2022-12-06T01:03:52.518Z,10.95
2022-12-06T01:06:28.030Z,17.88
2022-12-06T01:08:56.483Z,14.05
2022-12-06T01:11:24.021Z,18.65
2022-12-06T01:13:51.279Z,134.13
2022-12-06T01:16:24.560Z,224.45
2022-12-06T01:18:57.334Z,345.17
2022-12-06T01:21:25.506Z,152.18
2022-12-06T01:23:54.521Z,147.50
2022-12-06T01:26:24.729Z,344.65
2022-12-06T01:28:51.821Z,131.65
2022-12-06T01:31:19.167Z,228.88
2022-12-06T01:33:46.600Z,216.70
2022-12-06T01:36:18.471Z,223.70
2022-12-06T01:38:50.037Z,57.55
2022-12-06T01:41:17.259Z,26.55
2022-12-06T01:43:44.566Z,31.05
2022-12-06T01:46:20.294Z,74.28
2022-12-06T01:48:50.551Z,27.13
2022-12-06T01:51:17.850Z,30.42
2022-12-06T01:53:47.099Z,31.50
2022-12-06T01:56:14.160Z,50.33
2022-12-06T01:58:43.610Z,28.73
2022-12-06T02:01:11.275Z,46.67
2022-12-06T02:03:38.452Z,205.38
2022-12-06T02:06:07.574Z,83.03
2022-12-06T02:08:35.630Z,99.97
2022-12-06T02:11:03.662Z,66.22
2022-12-06T02:13:32.329Z,34.17
2022-12-06T02:15:59.070Z,12.00
2022-12-06T02:18:31.854Z,16.83
2022-12-06T02:21:22.623Z,9.50
2022-12-06T02:24:27.571Z,33.53
2022-12-06T02:27:20.161Z,17.42
2022-12-06T02:30:19.052Z,9.00
2022-12-06T02:32:55.255Z,9.13
2022-12-06T02:35:33.871Z,8.25
2022-12-06T02:38:29.130Z,9.27
2022-12-06T02:41:00.423Z,10.07
2022-12-06T02:43:42.471Z,11.05
2022-12-06T02:46:11.153Z,7.32
2022-12-06T02:48:39.195Z,7.57
2022-12-06T02:51:13.458Z,6.60
2022-12-06T02:53:45.813Z,7.28
2022-12-06T02:56:15.479Z,7.53
2022-12-06T02:58:42.542Z,8.60
2022-12-06T03:01:26.960Z,14.68
2022-12-06T03:04:15.061Z,9.57
2022-12-06T03:07:12.434Z,9.00
2022-12-06T03:10:00.646Z,9.60
2022-12-06T03:12:33.449Z,18.90
2022-12-06T03:15:14.899Z,12.80
2022-12-06T03:17:50.477Z,11.40
2022-12-06T03:20:43.235Z,8.73
2022-12-06T03:23:49.169Z,8.32
2022-12-06T03:26:21.192Z,8.43
2022-12-06T03:28:50.750Z,7.75
2022-12-06T03:31:17.548Z,8.57
2022-12-06T03:33:52.843Z,7.30
2022-12-06T03:36:21.094Z,10.82
2022-12-06T03:38:56.642Z,7.60
2022-12-06T03:41:27.307Z,9.45
2022-12-06T03:43:54.363Z,9.63
2022-12-06T03:46:27.982Z,8.90
2022-12-06T03:49:02.707Z,12.55
2022-12-06T03:51:32.376Z,10.43
2022-12-06T03:54:02.274Z,9.68
2022-12-06T03:56:29.268Z,9.32
2022-12-06T03:58:56.054Z,11.40
2022-12-06T04:01:23.014Z,9.32
2022-12-06T04:03:50.214Z,13.10
2022-12-06T04:06:17.105Z,27.30
2022-12-06T04:08:43.889Z,14.95
2022-12-06T04:11:10.740Z,12.68
2022-12-06T04:13:38.190Z,9.65
2022-12-06T04:16:25.224Z,11.55
2022-12-06T04:18:52.127Z,16.40
2022-12-06T04:21:33.802Z,13.95
2022-12-06T04:24:02.604Z,22.60
2022-12-06T04:26:29.361Z,16.20
2022-12-06T04:29:15.014Z,15.68
2022-12-06T04:32:00.362Z,21.30
2022-12-06T04:34:45.690Z,15.50
2022-12-06T04:37:30.834Z,13.55
2022-12-06T04:39:57.894Z,26.08
2022-12-06T04:42:43.175Z,28.95
2022-12-06T04:45:10.312Z,19.38
2022-12-06T04:47:37.155Z,18.70
2022-12-06T04:50:04.334Z,16.95
2022-12-06T04:52:35.459Z,16.67
2022-12-06T04:57:29.953Z,14.52
2022-12-06T04:59:56.699Z,19.13
2022-12-06T05:02:23.461Z,19.30
2022-12-06T05:04:50.242Z,16.67
2022-12-06T05:07:17.289Z,27.30
2022-12-06T05:09:44.047Z,26.48
2022-12-06T05:12:10.822Z,21.63
2022-12-06T05:14:37.660Z,33.67
2022-12-06T05:17:04.612Z,17.58
2022-12-06T05:19:31.637Z,27.83
2022-12-06T05:21:58.422Z,26.33
2022-12-06T05:24:25.327Z,26.35
2022-12-06T05:26:52.107Z,20.65
2022-12-06T05:29:19.907Z,80.65
2022-12-06T05:31:46.976Z,30.85
2022-12-06T05:34:13.834Z,64.55
2022-12-06T05:36:40.877Z,69.47
2022-12-06T05:39:07.701Z,41.35
2022-12-06T05:41:34.465Z,39.58
2022-12-06T05:44:01.216Z,30.73
2022-12-06T05:46:28.228Z,32.08
2022-12-06T05:48:55.133Z,35.13
2022-12-06T05:51:21.981Z,63.17
2022-12-06T05:53:48.716Z,65.30
2022-12-06T05:56:15.549Z,52.85
2022-12-06T05:58:42.327Z,30.30
2022-12-06T06:01:09.607Z,36.65
2022-12-06T06:03:38.989Z,25.20
2022-12-06T06:06:10.642Z,28.77
2022-12-06T06:08:37.408Z,36.95
2022-12-06T06:11:04.196Z,24.50
2022-12-06T06:13:31.143Z,26.70
2022-12-06T06:15:57.884Z,24.88
2022-12-06T06:18:24.912Z,129.68
2022-12-06T06:20:53.899Z,398.48
2022-12-06T06:23:21.614Z,87.00
2022-12-06T06:25:48.549Z,25.90
2022-12-06T06:28:16.813Z,69.07
2022-12-06T06:30:43.837Z,35.75
2022-12-06T06:33:11.065Z,253.98
2022-12-06T06:35:39.239Z,220.63
2022-12-06T06:38:06.491Z,49.58
2022-12-06T06:40:34.044Z,35.60
2022-12-06T06:43:18.279Z,58.92
2022-12-06T06:45:51.088Z,29.98
2022-12-06T06:48:20.918Z,29.67
2022-12-06T06:50:49.545Z,161.68
2022-12-06T06:55:48.074Z,169.23
2022-12-06T06:58:15.135Z,164.57
2022-12-06T07:00:43.018Z,172.73
2022-12-06T07:03:16.437Z,60.15
2022-12-06T07:05:43.611Z,184.00
2022-12-06T07:08:11.296Z,67.63
2022-12-06T07:10:38.122Z,30.85
2022-12-06T07:13:04.890Z,169.88
2022-12-06T07:15:31.657Z,151.73
2022-12-06T07:17:58.410Z,85.35
2022-12-06T07:20:25.206Z,97.93
2022-12-06T07:22:52.075Z,116.90
2022-12-06T07:25:18.827Z,105.90
2022-12-06T07:27:46.047Z,71.60
2022-12-06T07:30:16.988Z,47.05
2022-12-06T07:32:44.715Z,72.03
2022-12-06T07:35:11.609Z,77.88
2022-12-06T07:37:38.467Z,59.30
2022-12-06T07:40:06.028Z,28.65
2022-12-06T07:42:51.293Z,49.47
2022-12-06T07:45:18.177Z,73.68
2022-12-06T07:47:45.053Z,58.95
2022-12-06T07:50:18.175Z,56.60
2022-12-06T07:52:50.691Z,83.68
2022-12-06T07:55:18.534Z,54.58
2022-12-06T07:57:45.466Z,28.17
2022-12-06T08:00:16.173Z,32.60
2022-12-06T08:02:45.274Z,43.10
2022-12-06T08:05:12.651Z,43.78
2022-12-06T08:08:00.558Z,36.35
2022-12-06T08:10:27.723Z,50.85
2022-12-06T08:12:54.503Z,57.72
2022-12-06T08:15:21.318Z,59.67
2022-12-06T08:17:48.145Z,139.93
2022-12-06T08:20:15.014Z,43.88
2022-12-06T08:22:41.875Z,26.83
2022-12-06T08:25:09.157Z,39.03
2022-12-06T08:27:35.932Z,33.83
2022-12-06T08:30:03.043Z,35.03
2022-12-06T08:32:30.167Z,32.35
2022-12-06T08:34:56.908Z,35.85
2022-12-06T08:37:23.702Z,33.28
2022-12-06T08:39:50.474Z,30.80
2022-12-06T08:42:22.049Z,25.83
2022-12-06T08:44:51.832Z,32.88
2022-12-06T08:47:18.678Z,29.88
2022-12-06T08:49:45.545Z,29.15
2022-12-06T08:52:12.416Z,29.98
2022-12-06T08:54:40.044Z,28.10
2022-12-06T08:57:06.823Z,29.98
2022-12-06T08:59:33.598Z,32.05
2022-12-06T09:02:00.489Z,31.70
2022-12-06T09:04:28.352Z,31.52
2022-12-06T09:06:55.386Z,36.03
2022-12-06T09:09:22.179Z,35.83
2022-12-06T09:11:50.038Z,39.38
2022-12-06T09:14:21.966Z,33.38
2022-12-06T09:16:50.507Z,29.48
2022-12-06T09:19:18.275Z,25.95
2022-12-06T09:21:46.482Z,37.42
2022-12-06T09:24:15.818Z,36.60
2022-12-06T09:26:42.958Z,27.13
2022-12-06T09:29:10.327Z,25.08
2022-12-06T09:31:39.704Z,24.63
2022-12-06T09:34:08.634Z,24.35
2022-12-06T09:36:39.674Z,19.45
2022-12-06T09:39:27.706Z,19.55
2022-12-06T09:42:38.456Z,20.33
2022-12-06T09:45:13.235Z,19.48
2022-12-06T09:47:54.785Z,19.45
2022-12-06T09:50:39.627Z,17.55
2022-12-06T09:53:57.325Z,20.58
2022-12-06T09:56:44.321Z,29.38
2022-12-06T09:59:25.978Z,27.77
2022-12-06T10:02:31.803Z,25.20
2022-12-06T10:05:36.230Z,21.25
2022-12-06T10:08:15.132Z,20.20
2022-12-06T10:11:01.614Z,19.88
2022-12-06T10:13:56.194Z,18.63
2022-12-06T10:16:38.057Z,47.10
2022-12-06T10:22:24.211Z,23.15
2022-12-06T10:25:03.239Z,19.38
2022-12-06T10:27:44.145Z,19.73
2022-12-06T10:30:14.161Z,19.15
2022-12-06T10:33:35.287Z,18.67
2022-12-06T10:36:08.722Z,16.17
2022-12-06T10:39:00.628Z,21.15
2022-12-06T10:41:56.678Z,41.08
2022-12-06T10:44:35.545Z,27.27
2022-12-06T10:47:14.639Z,19.92
2022-12-06T10:50:04.863Z,22.17
2022-12-06T10:52:57.289Z,19.30
2022-12-06T10:55:52.075Z,29.08
2022-12-06T10:58:55.314Z,22.58
2022-12-06T11:01:28.726Z,20.95
2022-12-06T11:04:33.412Z,23.08
2022-12-06T11:07:12.760Z,27.23
2022-12-06T11:09:43.057Z,14.93
2022-12-06T11:12:25.207Z,15.27
2022-12-06T11:15:13.324Z,15.90
2022-12-06T11:17:48.476Z,9.52
2022-12-06T11:20:29.163Z,10.93
2022-12-06T11:23:32.082Z,12.52
2022-12-06T11:26:23.459Z,12.27
2022-12-06T11:29:06.135Z,12.10
2022-12-06T11:31:45.671Z,11.07
2022-12-06T11:34:42.170Z,11.65
2022-12-06T11:37:21.377Z,15.32
2022-12-06T11:39:51.471Z,14.73
2022-12-06T11:42:25.042Z,16.10
2022-12-06T11:45:28.307Z,17.25
2022-12-06T11:48:01.990Z,15.13
2022-12-06T11:50:33.382Z,15.85
2022-12-06T11:53:05.063Z,14.88
2022-12-06T11:55:42.077Z,17.83
2022-12-06T11:58:11.623Z,23.67
2022-12-06T12:00:59.530Z,21.63
2022-12-06T12:03:34.936Z,16.38
2022-12-06T12:06:20.049Z,20.55
2022-12-06T12:09:05.041Z,16.83
2022-12-06T12:11:40.127Z,15.02
2022-12-06T12:14:23.915Z,16.42
2022-12-06T12:17:01.307Z,16.92
2022-12-06T12:20:02.242Z,15.23
2022-12-06T12:22:37.811Z,16.77
2022-12-06T12:25:23.384Z,14.50
2022-12-06T12:27:52.969Z,16.67
2022-12-06T12:30:28.871Z,15.75
2022-12-06T12:33:07.927Z,15.82
2022-12-06T12:35:40.703Z,15.73
2022-12-06T12:38:10.450Z,17.65
2022-12-06T12:40:39.297Z,16.50
2022-12-06T12:43:10.803Z,13.70
2022-12-06T12:46:02.886Z,11.15
2022-12-06T12:48:30.201Z,11.18
2022-12-06T12:51:03.384Z,13.07
2022-12-06T12:53:41.572Z,12.43
2022-12-06T12:56:10.242Z,13.60
2022-12-06T12:58:41.376Z,11.57
2022-12-06T13:01:25.727Z,12.00
2022-12-06T13:03:57.438Z,14.02
2022-12-06T13:06:50.619Z,13.35
2022-12-06T13:09:31.260Z,13.90
2022-12-06T13:12:04.798Z,15.30
2022-12-06T13:14:34.335Z,15.68
2022-12-06T13:17:06.912Z,17.77
2022-12-06T13:19:39.040Z,17.17
2022-12-06T13:22:10.613Z,15.20
2022-12-06T13:24:39.298Z,14.88
2022-12-06T13:27:12.458Z,20.67
2022-12-06T13:29:44.051Z,14.35
2022-12-06T13:32:20.268Z,15.05
2022-12-06T13:34:55.460Z,19.73
2022-12-06T13:37:30.420Z,16.80
2022-12-06T13:39:57.681Z,14.80
2022-12-06T13:42:43.128Z,19.92
2022-12-06T13:45:42.344Z,15.73
2022-12-06T13:48:24.467Z,16.73
2022-12-06T13:51:02.240Z,18.67
2022-12-06T13:53:33.889Z,30.40
2022-12-06T13:56:30.746Z,23.00
2022-12-06T13:58:59.669Z,18.30
2022-12-06T14:01:40.313Z,19.25
2022-12-06T14:09:40.934Z,20.55
2022-12-06T14:12:19.812Z,20.30
2022-12-06T14:14:57.071Z,19.83
2022-12-06T14:18:00.021Z,19.63
2022-12-06T14:20:27.698Z,22.25
2022-12-06T14:22:54.749Z,25.33
2022-12-06T14:25:25.447Z,27.75
2022-12-06T14:28:06.143Z,38.83
2022-12-06T14:30:33.625Z,45.42
2022-12-06T14:33:00.599Z,26.00
2022-12-06T14:35:29.586Z,26.55
2022-12-06T14:38:00.092Z,26.33
2022-12-06T14:40:58.116Z,36.83
2022-12-06T14:43:28.295Z,45.10
2022-12-06T14:45:57.224Z,156.70
2022-12-06T14:48:24.912Z,115.65
2022-12-06T14:51:01.264Z,196.90
2022-12-06T14:53:36.485Z,149.65
2022-12-06T14:56:20.422Z,138.55
2022-12-06T14:58:48.775Z,276.17
2022-12-06T15:01:19.602Z,245.57
2022-12-06T15:04:06.942Z,40.73
2022-12-06T15:06:35.680Z,423.88
2022-12-06T15:09:02.786Z,104.57
2022-12-06T15:12:07.807Z,184.50
2022-12-06T15:14:40.653Z,96.65
2022-12-06T15:17:10.227Z,87.93
2022-12-06T15:19:53.671Z,302.88
2022-12-06T15:22:27.683Z,137.80
2022-12-06T15:24:57.432Z,102.20
2022-12-06T15:27:26.806Z,138.40
2022-12-06T15:29:53.898Z,49.58
2022-12-06T15:32:23.815Z,377.00
2022-12-06T15:34:53.785Z,295.08
2022-12-06T15:37:39.374Z,265.08
2022-12-06T15:40:07.848Z,334.38
2022-12-06T15:42:34.649Z,220.95
2022-12-06T15:45:01.566Z,381.23
2022-12-06T15:47:28.456Z,293.52
2022-12-06T15:49:58.140Z,288.35
2022-12-06T15:52:26.164Z,301.25
2022-12-06T15:54:52.999Z,144.55
2022-12-06T15:57:19.853Z,280.25
2022-12-06T15:59:46.636Z,189.13
2022-12-06T16:02:18.389Z,203.23
2022-12-06T16:04:48.351Z,205.80
2022-12-06T16:07:18.824Z,81.35
2022-12-06T16:09:46.392Z,178.50
2022-12-06T16:12:13.199Z,120.85
2022-12-06T16:14:39.969Z,77.10
2022-12-06T16:17:06.757Z,205.20
2022-12-06T16:19:52.218Z,175.02
2022-12-06T16:22:38.995Z,103.15
2022-12-06T16:25:06.149Z,151.15
2022-12-06T16:27:33.132Z,104.57
2022-12-06T16:29:59.894Z,210.30
2022-12-06T16:32:26.665Z,226.25
2022-12-06T16:34:55.132Z,191.73
2022-12-06T16:37:22.024Z,178.50
2022-12-06T16:39:48.851Z,233.40
2022-12-06T16:42:15.763Z,211.20
2022-12-06T16:44:58.095Z,150.95
2022-12-06T16:49:50.860Z,145.68
2022-12-06T16:52:18.106Z,197.02
2022-12-06T16:54:46.725Z,186.90
2022-12-06T16:57:14.679Z,93.57
2022-12-06T16:59:44.748Z,107.05
2022-12-06T17:02:33.736Z,77.07
2022-12-06T17:05:06.270Z,108.13
2022-12-06T17:07:34.654Z,126.43
2022-12-06T17:10:01.891Z,106.55
2022-12-06T17:12:28.756Z,155.27
2022-12-06T17:14:55.598Z,97.85
2022-12-06T17:17:22.941Z,285.23
2022-12-06T17:19:50.704Z,91.20
2022-12-06T17:22:18.724Z,391.67
2022-12-06T17:24:45.752Z,189.27
2022-12-06T17:27:14.896Z,292.55
2022-12-06T17:29:42.553Z,210.43
2022-12-06T17:32:09.470Z,144.32
2022-12-06T17:34:36.457Z,202.10
2022-12-06T17:37:03.348Z,160.73
2022-12-06T17:39:30.132Z,275.65
2022-12-06T17:42:15.411Z,222.00
2022-12-06T17:44:42.195Z,75.65
2022-12-06T17:47:09.106Z,125.18
2022-12-06T17:49:37.071Z,79.75
2022-12-06T17:52:04.350Z,89.60
2022-12-06T17:54:31.259Z,314.25
2022-12-06T17:56:58.064Z,210.43
2022-12-06T17:59:30.472Z,317.67
2022-12-06T18:02:17.898Z,536.50
2022-12-06T18:04:46.496Z,267.83
2022-12-06T18:07:14.108Z,238.38
2022-12-06T18:09:41.127Z,301.63
2022-12-06T18:12:09.878Z,516.45
2022-12-06T18:14:36.738Z,383.70
2022-12-06T18:17:03.842Z,134.10
2022-12-06T18:19:30.809Z,472.80
2022-12-06T18:21:57.599Z,320.52
2022-12-06T18:24:27.904Z,398.58
2022-12-06T18:26:58.654Z,388.33
2022-12-06T18:29:25.485Z,408.15
2022-12-06T18:31:52.871Z,390.73
2022-12-06T18:34:20.198Z,424.80
2022-12-06T18:36:47.551Z,442.75
2022-12-06T18:39:16.597Z,180.05
2022-12-06T18:41:44.719Z,162.48
2022-12-06T18:44:13.188Z,322.98
2022-12-06T18:46:42.262Z,343.23
2022-12-06T18:49:11.194Z,271.35
2022-12-06T18:51:41.252Z,227.93
2022-12-06T18:54:09.181Z,313.65
2022-12-06T18:56:36.604Z,309.52
2022-12-06T18:59:07.130Z,295.65
2022-12-06T19:01:36.349Z,219.13
2022-12-06T19:04:05.142Z,292.67
2022-12-06T19:06:34.884Z,272.25
2022-12-06T19:09:05.192Z,237.25
2022-12-06T19:11:32.353Z,323.33
2022-12-06T19:14:00.592Z,230.18
2022-12-06T19:16:39.393Z,238.65
2022-12-06T19:19:15.451Z,206.32
2022-12-06T19:21:43.951Z,181.50
2022-12-06T19:24:13.027Z,167.63
2022-12-06T19:26:40.259Z,152.50
2022-12-06T19:29:07.150Z,183.60
2022-12-06T19:31:34.043Z,102.15
2022-12-06T19:34:01.168Z,160.07
2022-12-06T19:36:30.228Z,147.00
2022-12-06T19:39:01.505Z,122.43
2022-12-06T19:41:28.845Z,53.42
2022-12-06T19:44:14.123Z,76.22
2022-12-06T19:46:43.547Z,70.72
2022-12-06T19:49:11.712Z,74.22
2022-12-06T19:52:00.571Z,61.67
2022-12-06T19:54:30.135Z,64.88
2022-12-06T19:56:58.608Z,115.20
2022-12-06T19:59:27.565Z,69.53
2022-12-06T20:01:54.997Z,80.63
2022-12-06T20:04:29.924Z,88.13
2022-12-06T20:06:57.316Z,62.45
2022-12-06T20:09:27.403Z,153.95
2022-12-06T20:12:01.457Z,141.93
2022-12-06T20:14:47.781Z,173.93
2022-12-06T20:17:17.004Z,164.23
2022-12-06T20:19:51.912Z,114.60
2022-12-06T20:22:22.098Z,144.75
2022-12-06T20:24:48.980Z,140.63
2022-12-06T20:27:15.773Z,159.43
2022-12-06T20:29:42.733Z,111.05
2022-12-06T20:32:10.490Z,141.57
2022-12-06T20:34:37.923Z,107.85
2022-12-06T20:37:06.135Z,127.55
2022-12-06T20:39:35.662Z,125.20
2022-12-06T20:42:03.433Z,89.25
2022-12-06T20:44:30.922Z,115.07
2022-12-06T20:46:57.963Z,77.53
2022-12-06T20:49:25.004Z,84.20
2022-12-06T20:51:53.678Z,103.00
2022-12-06T20:54:21.969Z,69.07
2022-12-06T20:56:52.050Z,64.93
2022-12-06T20:59:19.255Z,206.27
2022-12-06T21:01:46.215Z,103.20
2022-12-06T21:04:14.406Z,113.90
2022-12-06T21:06:41.523Z,84.25
2022-12-06T21:09:08.409Z,110.45
2022-12-06T21:11:35.612Z,89.60
2022-12-06T21:14:03.718Z,81.70
2022-12-06T21:16:32.521Z,74.95
2022-12-06T21:19:01.837Z,106.30
2022-12-06T21:21:31.194Z,78.50
2022-12-06T21:24:02.829Z,89.93
2022-12-06T21:26:30.418Z,119.10
2022-12-06T21:28:57.631Z,139.35
2022-12-06T21:31:40.973Z,131.95
2022-12-06T21:34:08.134Z,97.80
2022-12-06T21:36:34.954Z,90.90
2022-12-06T21:39:01.809Z,114.88
2022-12-06T21:41:28.573Z,73.22
2022-12-06T21:43:55.702Z,81.57
2022-12-06T21:46:24.705Z,136.57
2022-12-06T21:48:53.616Z,82.07
2022-12-06T21:51:20.510Z,81.60
2022-12-06T21:53:47.984Z,104.07
2022-12-06T21:56:28.426Z,83.38
2022-12-06T21:58:55.965Z,69.20
2022-12-06T22:01:25.383Z,83.35
2022-12-06T22:03:54.336Z,100.95
2022-12-06T22:06:21.976Z,80.50
2022-12-06T22:08:55.337Z,75.07
2022-12-06T22:11:22.124Z,68.25
2022-12-06T22:13:48.936Z,80.50
2022-12-06T22:16:16.952Z,65.32
2022-12-06T22:18:46.218Z,150.68
2022-12-06T22:21:19.699Z,104.53
2022-12-06T22:23:47.393Z,132.52
2022-12-06T22:26:16.797Z,84.55
2022-12-06T22:28:44.337Z,113.65
2022-12-06T22:31:17.645Z,73.60
2022-12-06T22:33:45.208Z,166.65
2022-12-06T22:36:13.499Z,148.95
2022-12-06T22:38:40.815Z,79.25
2022-12-06T22:41:08.892Z,135.85
2022-12-06T22:43:37.123Z,134.98
2022-12-06T22:46:06.986Z,78.60
2022-12-06T22:48:33.807Z,154.35
2022-12-06T22:51:18.013Z,117.00
2022-12-06T22:53:46.861Z,169.98
2022-12-06T22:56:14.904Z,194.82
2022-12-06T22:58:41.816Z,193.45
2022-12-06T23:01:17.621Z,142.07
2022-12-06T23:03:46.376Z,273.48
2022-12-06T23:06:14.985Z,251.13
2022-12-06T23:08:42.567Z,236.48
2022-12-06T23:11:11.248Z,77.80
2022-12-06T23:13:38.527Z,507.25
2022-12-06T23:16:07.888Z,209.90
2022-12-06T23:18:35.018Z,444.40
2022-12-06T23:21:09.114Z,441.48
2022-12-06T23:23:36.163Z,242.98
2022-12-06T23:26:08.042Z,142.10
2022-12-06T23:28:35.554Z,276.85
2022-12-06T23:31:11.581Z,265.27
2022-12-06T23:33:38.626Z,167.88
2022-12-06T23:36:12.673Z,327.15
2022-12-06T23:38:40.548Z,299.15
2022-12-06T23:41:13.216Z,343.92
2022-12-06T23:43:41.344Z,289.90
2022-12-06T23:46:10.792Z,353.63
2022-12-06T23:48:38.214Z,497.23
2022-12-06T23:51:11.310Z,229.27
2022-12-06T23:53:38.903Z,314.70
2022-12-06T23:56:10.035Z,355.23
2022-12-06T23:58:37.549Z,278.38
